Time;durP1;ratioP1;P1;durP2;ratioP2;P2;SDS_P1;SDS_P2;PMS_P1;PMS_P2;Temp;Humidity;BMP_temperature;BMP_pressure;BME280_temperature;BME280_humidity;BME280_pressure;Samples;Min_cycle;Max_cycle;Signal;HPM_P1;HPM_P2
2023/04/17 00:02:18;;;;;;;4.00;1.43;;;13.00;58.20;;;;;;5012083;28;20208;-71
2023/04/17 00:04:44;;;;;;;4.00;1.50;;;13.10;57.30;;;;;;5012980;28;20560;-70
2023/04/17 00:07:10;;;;;;;3.87;1.27;;;12.50;60.00;;;;;;5013974;28;20180;-70
2023/04/17 00:09:35;;;;;;;3.90;1.30;;;13.00;60.70;;;;;;5012439;28;20456;-68
2023/04/17 00:12:01;;;;;;;3.80;1.30;;;13.10;59.90;;;;;;5013031;28;20432;-71
2023/04/17 00:14:27;;;;;;;4.73;1.90;;;13.00;58.10;;;;;;5009100;28;20227;-71
2023/04/17 00:16:53;;;;;;;4.30;1.33;;;13.30;56.90;;;;;;5015319;28;20417;-68
2023/04/17 00:19:19;;;;;;;4.20;1.50;;;13.30;56.90;;;;;;5013429;28;20551;-68
2023/04/17 00:21:44;;;;;;;4.10;1.60;;;13.10;56.80;;;;;;5011908;28;20197;-68
2023/04/17 00:24:11;;;;;;;4.43;1.70;;;13.20;58.40;;;;;;5011934;28;20178;-68
2023/04/17 00:26:37;;;;;;;4.10;1.67;;;13.40;56.30;;;;;;5012697;28;20503;-68
2023/04/17 00:29:03;;;;;;;5.40;2.07;;;13.60;55.90;;;;;;5012043;28;20589;-68
2023/04/17 00:31:29;;;;;;;4.90;2.57;;;13.60;55.20;;;;;;4900358;28;20847;-65
2023/04/17 00:33:55;;;;;;;4.40;2.10;;;13.30;55.00;;;;;;4695011;28;21308;-65
2023/04/17 00:36:21;;;;;;;4.20;1.60;;;13.40;54.50;;;;;;4823500;28;20923;-68
2023/04/17 00:38:46;;;;;;;5.47;2.03;;;13.90;53.40;;;;;;5012485;28;20184;-68
2023/04/17 00:41:12;;;;;;;6.10;1.70;;;13.70;52.70;;;;;;5012469;28;20229;-68
2023/04/17 00:43:37;;;;;;;5.40;1.73;;;13.40;55.00;;;;;;5010890;28;20256;-68
2023/04/17 00:46:04;;;;;;;4.20;1.60;;;13.40;55.40;;;;;;5013334;28;20629;-68
2023/04/17 00:48:31;;;;;;;4.70;2.00;;;13.50;54.10;;;;;;5011747;28;20236;-68
2023/04/17 00:51:01;;;;;;;8.33;2.70;;;13.50;54.40;;;;;;5012502;28;20889;-68
2023/04/17 00:53:30;;;;;;;4.00;1.40;;;13.60;55.70;;;;;;5009112;28;20440;-68
2023/04/17 00:55:57;;;;;;;4.03;1.57;;;13.50;54.60;;;;;;5007012;28;20434;-68
2023/04/17 00:58:23;;;;;;;4.00;1.40;;;13.60;54.10;;;;;;5012210;28;20408;-68
2023/04/17 01:00:49;;;;;;;4.00;1.50;;;13.30;55.20;;;;;;5012729;28;20997;-68
2023/04/17 01:03:15;;;;;;;5.60;2.70;;;13.40;54.50;;;;;;5008546;28;20432;-68
2023/04/17 01:05:47;;;;;;;3.90;1.30;;;13.50;54.20;;;;;;5010866;28;21001;-68
2023/04/17 01:08:13;;;;;;;4.67;1.50;;;13.50;54.00;;;;;;5012815;28;20411;-68
2023/04/17 01:10:39;;;;;;;3.87;1.33;;;13.70;52.20;;;;;;5011669;28;20753;-68
2023/04/17 01:13:05;;;;;;;3.70;1.20;;;13.60;54.20;;;;;;5010615;28;20435;-68
2023/04/17 01:15:32;;;;;;;4.20;1.67;;;13.20;53.70;;;;;;5010773;28;20189;-68
2023/04/17 01:17:57;;;;;;;3.70;1.30;;;13.20;56.50;;;;;;5011152;28;21977;-68
2023/04/17 01:20:30;;;;;;;4.07;1.60;;;12.90;56.70;;;;;;5012648;28;20428;-67
2023/04/17 01:22:57;;;;;;;3.90;1.47;;;13.10;57.30;;;;;;5010917;28;20196;-67
2023/04/17 01:25:23;;;;;;;13.87;2.97;;;13.20;55.00;;;;;;5009990;28;20437;-68
2023/04/17 01:27:48;;;;;;;5.10;2.30;;;13.30;55.00;;;;;;5011476;28;20797;-68
2023/04/17 01:30:14;;;;;;;5.73;1.93;;;13.20;55.60;;;;;;5012538;28;20420;-68
2023/04/17 01:32:40;;;;;;;3.67;1.30;;;13.50;53.90;;;;;;5011290;28;20169;-68
2023/04/17 01:35:06;;;;;;;4.57;1.93;;;13.10;55.90;;;;;;5011797;28;20604;-66
2023/04/17 01:37:32;;;;;;;4.87;1.60;;;13.10;55.70;;;;;;5011238;28;20442;-68
2023/04/17 01:39:58;;;;;;;5.33;1.70;;;13.00;55.20;;;;;;5011574;28;20889;-69
2023/04/17 01:42:24;;;;;;;4.40;1.67;;;12.30;59.60;;;;;;5011493;28;20223;-68
2023/04/17 01:44:50;;;;;;;3.97;1.50;;;13.00;57.80;;;;;;5006998;28;20477;-67
2023/04/17 01:47:15;;;;;;;10.23;1.50;;;13.10;55.20;;;;;;5010366;28;20431;-69
2023/04/17 01:49:41;;;;;;;4.27;1.73;;;13.10;56.00;;;;;;5004403;28;20668;-69
2023/04/17 01:52:06;;;;;;;4.33;1.63;;;13.40;55.80;;;;;;5011278;28;20171;-69
2023/04/17 01:54:32;;;;;;;4.20;1.40;;;13.60;54.50;;;;;;5011798;28;20529;-68
2023/04/17 01:56:58;;;;;;;3.73;1.43;;;13.10;54.90;;;;;;5009909;28;20181;-69
2023/04/17 01:59:23;;;;;;;6.23;1.77;;;13.20;54.20;;;;;;5005107;28;20205;-69
2023/04/17 02:01:50;;;;;;;3.53;1.23;;;13.50;54.60;;;;;;5012008;28;20567;-69
2023/04/17 02:04:16;;;;;;;4.77;2.23;;;13.40;53.90;;;;;;5010973;28;20177;-69
2023/04/17 02:06:41;;;;;;;4.97;1.63;;;13.20;54.40;;;;;;5007930;28;20424;-67
2023/04/17 02:09:07;;;;;;;4.53;1.97;;;13.20;54.20;;;;;;5009342;28;20433;-69
2023/04/17 02:11:33;;;;;;;5.93;2.23;;;12.90;55.10;;;;;;5010556;28;20173;-68
2023/04/17 02:13:58;;;;;;;4.03;1.73;;;13.10;55.70;;;;;;5011867;28;20610;-69
2023/04/17 02:16:24;;;;;;;3.50;1.33;;;12.90;56.60;;;;;;5012249;28;20862;-69
2023/04/17 02:18:50;;;;;;;6.10;2.13;;;12.90;55.80;;;;;;5008558;28;20188;-69
2023/04/17 02:21:16;;;;;;;4.23;1.90;;;13.10;55.10;;;;;;5010389;28;20240;-68
2023/04/17 02:23:42;;;;;;;3.70;1.43;;;13.10;55.20;;;;;;5015933;28;20459;-69
2023/04/17 02:26:08;;;;;;;4.00;1.73;;;13.30;54.90;;;;;;5018387;28;20453;-69
2023/04/17 02:28:33;;;;;;;3.87;1.40;;;13.30;54.60;;;;;;5017563;28;20436;-69
2023/04/17 02:30:59;;;;;;;3.50;1.23;;;13.50;53.50;;;;;;5016001;28;20287;-68
2023/04/17 02:33:25;;;;;;;4.70;1.93;;;13.50;54.10;;;;;;5017154;28;20223;-69
2023/04/17 02:35:50;;;;;;;6.73;1.87;;;13.40;53.90;;;;;;5018150;28;20178;-69
2023/04/17 02:38:16;;;;;;;3.70;1.43;;;13.40;53.70;;;;;;5018502;28;20177;-68
2023/04/17 02:40:42;;;;;;;4.00;1.43;;;13.10;54.90;;;;;;5016567;28;20212;-69
2023/04/17 02:43:07;;;;;;;4.97;2.17;;;13.10;55.00;;;;;;5017569;28;20428;-68
2023/04/17 02:45:33;;;;;;;4.00;1.53;;;13.20;54.50;;;;;;5018182;28;20184;-67
2023/04/17 02:47:59;;;;;;;3.93;1.53;;;13.40;53.80;;;;;;5018417;28;20176;-69
2023/04/17 02:50:25;;;;;;;3.70;1.50;;;13.60;53.30;;;;;;5015076;28;20567;-69
2023/04/17 02:52:51;;;;;;;4.50;1.90;;;13.30;52.80;;;;;;5016806;28;20438;-69
2023/04/17 02:55:16;;;;;;;3.70;1.40;;;13.20;55.00;;;;;;5017626;28;20208;-68
2023/04/17 02:57:42;;;;;;;3.80;1.50;;;13.30;53.80;;;;;;5018298;28;20184;-69
2023/04/17 03:00:12;;;;;;;3.63;1.40;;;13.30;53.80;;;;;;5017016;28;20739;-68
2023/04/17 03:02:37;;;;;;;3.60;1.43;;;13.40;53.00;;;;;;5015319;28;20379;-69
2023/04/17 03:05:04;;;;;;;3.70;1.50;;;13.40;53.20;;;;;;5017249;28;21056;-69
2023/04/17 03:07:29;;;;;;;3.70;1.47;;;13.50;52.70;;;;;;5017183;28;20177;-69
2023/04/17 03:09:56;;;;;;;3.50;1.30;;;13.40;52.90;;;;;;5019441;28;20483;-69
2023/04/17 03:12:22;;;;;;;3.50;1.20;;;13.30;53.10;;;;;;5016140;28;20184;-69
2023/04/17 03:14:48;;;;;;;3.37;1.17;;;13.40;53.10;;;;;;5016973;28;20442;-69
2023/04/17 03:17:14;;;;;;;4.00;1.77;;;13.40;53.10;;;;;;5018081;28;20421;-69
2023/04/17 03:19:39;;;;;;;3.60;1.40;;;13.50;53.00;;;;;;5015884;28;20208;-69
2023/04/17 03:22:05;;;;;;;3.53;1.40;;;13.50;53.00;;;;;;5016466;28;20470;-68
2023/04/17 03:24:31;;;;;;;3.50;1.40;;;13.20;54.00;;;;;;5015464;28;20177;-68
2023/04/17 03:26:58;;;;;;;5.33;2.20;;;13.10;53.80;;;;;;5017477;28;20205;-69
2023/04/17 03:29:23;;;;;;;3.90;1.57;;;13.20;53.50;;;;;;5017854;28;20870;-69
2023/04/17 03:31:49;;;;;;;4.20;1.70;;;13.20;53.90;;;;;;5016511;28;20531;-69
2023/04/17 03:34:17;;;;;;;4.43;1.93;;;13.30;53.40;;;;;;5014349;28;20189;-68
2023/04/17 03:36:43;;;;;;;4.33;1.83;;;13.40;53.30;;;;;;5005936;28;20236;-68
2023/04/17 03:39:08;;;;;;;3.40;1.20;;;13.30;53.40;;;;;;5014667;28;20413;-69
2023/04/17 03:41:34;;;;;;;3.67;1.33;;;13.50;53.50;;;;;;5012672;28;20546;-69
2023/04/17 03:44:00;;;;;;;3.90;1.50;;;13.30;53.10;;;;;;5013872;28;20181;-69
2023/04/17 03:46:25;;;;;;;4.17;1.80;;;13.30;53.60;;;;;;5013259;28;20186;-69
2023/04/17 03:48:51;;;;;;;8.17;2.30;;;13.30;53.50;;;;;;5005522;28;20747;-68
2023/04/17 03:51:16;;;;;;;3.37;1.20;;;13.40;52.20;;;;;;5014382;28;20193;-69
2023/04/17 03:53:42;;;;;;;4.10;1.90;;;13.50;51.80;;;;;;5014373;28;20177;-69
2023/04/17 03:56:08;;;;;;;3.97;1.50;;;13.70;52.70;;;;;;5013231;28;20193;-69
2023/04/17 03:58:33;;;;;;;3.80;1.77;;;13.50;51.80;;;;;;5013265;28;20185;-69
2023/04/17 04:01:00;;;;;;;3.67;1.63;;;13.50;52.00;;;;;;5013396;28;20205;-69
2023/04/17 04:03:27;;;;;;;3.40;1.30;;;13.50;52.60;;;;;;5014091;28;20551;-69
2023/04/17 04:05:52;;;;;;;5.20;2.10;;;13.40;52.50;;;;;;5014182;28;20411;-69
2023/04/17 04:08:18;;;;;;;3.60;1.43;;;13.20;53.30;;;;;;5013187;28;20976;-70
2023/04/17 04:10:44;;;;;;;4.53;1.70;;;13.40;53.80;;;;;;5013205;28;20284;-70
2023/04/17 04:13:11;;;;;;;4.00;1.63;;;13.20;53.40;;;;;;5008238;28;20201;-69
2023/04/17 04:15:37;;;;;;;3.40;1.30;;;13.10;54.60;;;;;;5013610;28;20471;-70
2023/04/17 04:18:03;;;;;;;4.13;1.80;;;13.10;53.90;;;;;;5013298;28;20424;-70
2023/04/17 04:20:28;;;;;;;3.70;1.40;;;13.20;53.50;;;;;;5012850;28;20956;-70
2023/04/17 04:22:56;;;;;;;4.77;2.20;;;13.30;53.50;;;;;;5013628;28;20719;-70
2023/04/17 04:25:25;;;;;;;6.20;2.10;;;13.40;53.10;;;;;;5013175;28;20641;-70
2023/04/17 04:27:52;;;;;;;4.23;1.83;;;13.20;53.00;;;;;;5011960;28;20424;-68
2023/04/17 04:30:19;;;;;;;3.47;1.37;;;13.10;53.20;;;;;;5012979;28;20448;-70
2023/04/17 04:32:45;;;;;;;3.43;1.40;;;13.10;54.20;;;;;;5013553;28;20917;-69
2023/04/17 04:35:11;;;;;;;3.40;1.37;;;13.30;53.10;;;;;;5014948;28;20412;-70
2023/04/17 04:37:37;;;;;;;3.33;1.23;;;13.20;53.10;;;;;;5015591;28;20421;-70
2023/04/17 04:40:09;;;;;;;3.40;1.30;;;13.30;53.60;;;;;;5012715;28;20450;-70
2023/04/17 04:42:38;;;;;;;4.10;1.50;;;13.20;53.30;;;;;;5012246;28;20206;-70
2023/04/17 04:45:05;;;;;;;4.10;1.57;;;13.20;53.80;;;;;;5007726;28;20476;-70
2023/04/17 04:47:31;;;;;;;7.83;2.23;;;13.20;52.50;;;;;;5008996;28;20428;-69
2023/04/17 04:49:56;;;;;;;3.50;1.40;;;13.10;52.50;;;;;;5013414;28;20502;-69
2023/04/17 04:52:22;;;;;;;3.60;1.53;;;13.20;52.60;;;;;;5013207;28;20260;-70
2023/04/17 04:54:47;;;;;;;3.40;1.40;;;13.30;52.90;;;;;;5011377;28;20236;-68
2023/04/17 04:57:13;;;;;;;3.97;1.53;;;13.40;51.70;;;;;;5011388;28;20185;-70
2023/04/17 04:59:39;;;;;;;3.50;1.50;;;13.40;52.90;;;;;;5012657;28;20601;-69
2023/04/17 05:02:04;;;;;;;4.17;1.93;;;13.50;51.80;;;;;;5010684;28;20201;-70
2023/04/17 05:04:30;;;;;;;3.70;1.60;;;13.40;52.70;;;;;;5011210;28;20210;-69
2023/04/17 05:06:58;;;;;;;3.60;1.40;;;13.20;52.70;;;;;;5011437;28;20200;-69
2023/04/17 05:09:24;;;;;;;3.50;1.40;;;13.30;53.90;;;;;;5012331;28;20750;-70
2023/04/17 05:11:52;;;;;;;4.10;1.90;;;13.30;52.80;;;;;;5012460;28;20471;-70
2023/04/17 05:14:18;;;;;;;3.37;1.30;;;13.30;52.30;;;;;;5009846;28;20189;-70
2023/04/17 05:16:44;;;;;;;5.03;2.43;;;13.60;53.70;;;;;;5007264;28;20439;-70
2023/04/17 05:19:10;;;;;;;4.20;1.47;;;13.20;53.90;;;;;;5011405;28;20177;-69
2023/04/17 05:21:36;;;;;;;5.23;1.67;;;13.30;53.00;;;;;;5012821;28;20234;-70
2023/04/17 05:24:01;;;;;;;3.73;1.50;;;13.40;52.10;;;;;;5012889;28;20408;-69
2023/04/17 05:26:27;;;;;;;3.70;1.50;;;13.00;53.60;;;;;;5012487;28;20193;-70
2023/04/17 05:28:52;;;;;;;5.27;2.20;;;13.30;54.30;;;;;;5016186;28;20188;-71
2023/04/17 05:31:18;;;;;;;5.80;2.20;;;13.60;53.90;;;;;;5015848;28;20205;-70
2023/04/17 05:33:44;;;;;;;4.40;1.40;;;13.40;52.60;;;;;;5017831;28;20535;-69
2023/04/17 05:36:09;;;;;;;4.10;1.40;;;13.40;51.70;;;;;;5017816;28;20543;-68
2023/04/17 05:38:35;;;;;;;6.10;2.63;;;13.80;52.20;;;;;;5016124;28;20193;-69
2023/04/17 05:41:01;;;;;;;3.90;1.77;;;13.60;51.90;;;;;;5018339;28;20205;-69
2023/04/17 05:43:26;;;;;;;4.50;1.60;;;13.40;52.10;;;;;;5003973;28;20252;-69
2023/04/17 05:45:52;;;;;;;5.03;2.40;;;13.40;53.50;;;;;;5003011;28;20581;-69
2023/04/17 05:48:18;;;;;;;4.07;1.70;;;13.50;51.90;;;;;;5009612;28;20265;-66
2023/04/17 05:50:44;;;;;;;4.80;2.47;;;13.40;51.70;;;;;;5010576;28;20536;-69
2023/04/17 05:53:09;;;;;;;5.53;1.67;;;13.70;52.00;;;;;;5008817;28;20694;-69
2023/04/17 05:55:35;;;;;;;3.70;1.40;;;13.80;52.30;;;;;;5010926;28;20440;-69
2023/04/17 05:58:01;;;;;;;3.60;1.30;;;13.50;51.80;;;;;;5009231;28;20181;-70
2023/04/17 06:00:27;;;;;;;4.00;1.60;;;13.60;52.20;;;;;;5036809;23;20235;-65
2023/04/17 06:02:54;;;;;;;4.07;1.87;;;13.50;53.10;;;;;;5013689;28;20718;-64
2023/04/17 06:05:20;;;;;;;3.77;1.47;;;13.50;52.90;;;;;;5007558;28;20503;-64
2023/04/17 06:07:46;;;;;;;5.20;2.10;;;13.50;52.70;;;;;;5011121;28;20423;-64
2023/04/17 06:10:12;;;;;;;4.97;2.23;;;13.20;53.90;;;;;;5012035;28;20927;-65
2023/04/17 06:12:37;;;;;;;4.20;1.60;;;13.20;53.70;;;;;;5010696;28;20181;-65
2023/04/17 06:15:04;;;;;;;3.73;1.43;;;13.70;53.00;;;;;;5009081;28;20426;-67
2023/04/17 06:17:30;;;;;;;4.03;1.67;;;13.50;51.90;;;;;;5011386;28;20498;-67
2023/04/17 06:19:56;;;;;;;5.57;2.17;;;13.60;52.20;;;;;;5011007;28;20823;-67
2023/04/17 06:22:22;;;;;;;5.50;2.10;;;13.80;51.60;;;;;;5011629;28;20467;-67
2023/04/17 06:24:47;;;;;;;3.90;1.60;;;13.80;51.20;;;;;;5009638;28;20190;-67
2023/04/17 06:27:13;;;;;;;3.93;1.43;;;14.00;52.30;;;;;;5010688;28;20177;-67
2023/04/17 06:29:39;;;;;;;4.93;2.03;;;13.70;52.00;;;;;;5010754;28;20185;-67
2023/04/17 06:32:05;;;;;;;4.13;1.77;;;13.60;52.40;;;;;;5010137;28;20640;-67
2023/04/17 06:34:31;;;;;;;3.80;1.40;;;13.70;52.40;;;;;;5009249;28;20818;-73
2023/04/17 06:36:58;;;;;;;5.27;2.00;;;13.60;52.30;;;;;;5022455;28;20451;-71
2023/04/17 06:39:23;;;;;;;3.80;1.40;;;13.90;52.20;;;;;;5010388;28;20428;-73
2023/04/17 06:41:49;;;;;;;3.83;1.30;;;13.70;52.00;;;;;;5011558;28;20461;-73
2023/04/17 06:44:15;;;;;;;4.57;1.93;;;13.50;53.30;;;;;;5011877;28;20224;-73
2023/04/17 06:46:41;;;;;;;3.93;1.50;;;13.50;54.70;;;;;;5007975;28;20181;-73
2023/04/17 06:49:06;;;;;;;4.93;2.20;;;13.40;54.50;;;;;;5015212;28;20412;-67
2023/04/17 06:51:32;;;;;;;6.83;3.07;;;13.10;55.00;;;;;;5006864;28;20201;-67
2023/04/17 06:53:58;;;;;;;4.70;1.80;;;13.10;54.70;;;;;;5010671;28;20188;-67
2023/04/17 06:56:24;;;;;;;5.23;2.00;;;13.40;53.70;;;;;;5011652;28;20182;-67
2023/04/17 06:58:51;;;;;;;6.90;2.10;;;13.60;52.60;;;;;;5008803;28;20502;-67
2023/04/17 07:01:16;;;;;;;4.20;1.40;;;14.10;52.40;;;;;;5010961;28;20953;-67
2023/04/17 07:03:42;;;;;;;4.20;1.40;;;13.80;50.80;;;;;;5012337;28;20445;-67
2023/04/17 07:06:08;;;;;;;5.30;2.10;;;13.70;52.30;;;;;;5013982;28;20633;-67
2023/04/17 07:08:34;;;;;;;4.50;1.50;;;13.70;51.70;;;;;;5006578;28;20247;-67
2023/04/17 07:11:00;;;;;;;5.13;1.97;;;13.70;52.70;;;;;;5010250;28;20217;-67
2023/04/17 07:13:30;;;;;;;4.03;1.30;;;13.80;52.10;;;;;;5009636;28;20193;-67
2023/04/17 07:15:56;;;;;;;5.03;2.00;;;13.60;51.90;;;;;;5014834;28;20417;-67
2023/04/17 07:18:24;;;;;;;4.40;1.60;;;13.50;51.80;;;;;;5015341;28;20573;-74
2023/04/17 07:20:49;;;;;;;5.10;1.70;;;13.30;53.10;;;;;;5012918;28;20467;-67
2023/04/17 07:23:15;;;;;;;5.73;2.60;;;13.40;54.00;;;;;;5012586;28;20849;-66
2023/04/17 07:25:41;;;;;;;4.20;1.50;;;13.30;53.50;;;;;;5013550;28;20173;-67
2023/04/17 07:28:07;;;;;;;4.27;1.60;;;13.20;54.40;;;;;;5015345;28;20264;-66
2023/04/17 07:30:32;;;;;;;4.40;1.50;;;13.00;56.30;;;;;;5014558;28;20217;-68
2023/04/17 07:32:59;;;;;;;7.63;2.53;;;13.50;54.80;;;;;;5014218;28;20425;-67
2023/04/17 07:35:25;;;;;;;4.97;1.77;;;13.60;52.80;;;;;;5014905;28;20223;-66
2023/04/17 07:37:50;;;;;;;4.23;1.43;;;14.00;52.30;;;;;;5014613;28;20408;-66
2023/04/17 07:40:16;;;;;;;4.10;1.33;;;13.90;52.20;;;;;;5010928;28;20208;-67
2023/04/17 07:42:42;;;;;;;4.40;1.60;;;14.00;51.50;;;;;;5011775;28;20736;-70
2023/04/17 07:45:09;;;;;;;4.10;1.40;;;14.00;51.60;;;;;;5015109;28;20504;-70
2023/04/17 07:47:35;;;;;;;4.10;1.50;;;13.70;52.80;;;;;;5014521;28;20185;-70
2023/04/17 07:50:01;;;;;;;6.30;1.80;;;13.90;52.20;;;;;;5013206;28;20436;-69
2023/04/17 07:52:27;;;;;;;4.10;1.40;;;14.10;52.40;;;;;;5012696;28;20446;-70
2023/04/17 07:54:53;;;;;;;3.90;1.20;;;14.20;50.60;;;;;;5007450;28;20525;-71
2023/04/17 07:57:20;;;;;;;4.37;1.50;;;14.10;50.90;;;;;;5010482;28;20190;-71
2023/04/17 07:59:46;;;;;;;4.20;1.50;;;14.30;50.00;;;;;;5014281;28;20460;-70
2023/04/17 08:02:12;;;;;;;3.93;1.33;;;14.30;50.60;;;;;;5014830;28;20590;-69
2023/04/17 08:04:38;;;;;;;4.20;1.60;;;14.30;51.20;;;;;;5009497;28;20196;-70
2023/04/17 08:07:05;;;;;;;4.00;1.33;;;14.40;49.80;;;;;;5013854;28;20177;-72
2023/04/17 08:09:31;;;;;;;4.00;1.30;;;14.20;50.10;;;;;;5013038;28;20482;-69
2023/04/17 08:11:57;;;;;;;4.10;1.40;;;14.40;50.00;;;;;;5011368;28;20925;-68
2023/04/17 08:14:22;;;;;;;3.97;1.27;;;14.40;50.20;;;;;;5009839;28;20441;-69
2023/04/17 08:16:49;;;;;;;4.73;1.50;;;14.30;50.50;;;;;;5007871;28;20269;-68
2023/04/17 08:19:14;;;;;;;4.13;1.30;;;14.40;51.10;;;;;;5010329;28;20257;-68
2023/04/17 08:21:40;;;;;;;4.20;1.40;;;14.00;53.00;;;;;;5008812;28;20632;-67
2023/04/17 08:24:06;;;;;;;4.20;1.40;;;14.20;52.50;;;;;;5008758;28;20190;-68
2023/04/17 08:26:32;;;;;;;4.40;1.60;;;13.70;52.00;;;;;;5006840;28;20185;-69
2023/04/17 08:29:00;;;;;;;4.30;1.40;;;13.70;52.80;;;;;;5010997;28;20955;-71
2023/04/17 08:31:29;;;;;;;4.03;1.20;;;13.90;52.20;;;;;;5010822;28;20606;-68
2023/04/17 08:33:56;;;;;;;4.20;1.47;;;14.10;51.10;;;;;;5009926;28;20524;-68
2023/04/17 08:36:21;;;;;;;4.10;1.40;;;13.90;52.20;;;;;;5010046;28;20432;-69
2023/04/17 08:38:47;;;;;;;7.80;2.90;;;14.00;51.20;;;;;;5010627;28;20954;-69
2023/04/17 08:41:20;;;;;;;4.40;1.60;;;14.00;51.40;;;;;;5012368;28;20201;-69
2023/04/17 08:43:49;;;;;;;4.30;1.47;;;14.00;52.30;;;;;;5008207;28;20616;-69
2023/04/17 08:46:15;;;;;;;4.10;1.20;;;14.20;52.30;;;;;;5013775;28;20760;-68
2023/04/17 08:48:41;;;;;;;4.40;1.77;;;14.20;50.90;;;;;;5013295;28;20770;-69
2023/04/17 08:51:07;;;;;;;4.53;1.57;;;14.00;51.30;;;;;;5013734;28;20468;-68
2023/04/17 08:53:32;;;;;;;4.40;1.40;;;14.00;50.90;;;;;;5013175;28;20270;-68
2023/04/17 08:56:03;;;;;;;4.17;1.40;;;14.00;52.10;;;;;;5013167;28;20209;-68
2023/04/17 08:58:33;;;;;;;4.60;1.77;;;14.10;52.40;;;;;;5009750;28;20189;-69
2023/04/17 09:01:09;;;;;;;4.50;1.70;;;13.80;53.70;;;;;;5012560;28;20470;-68
2023/04/17 09:03:42;;;;;;;4.20;1.50;;;13.90;53.30;;;;;;5003104;28;20458;-69
2023/04/17 09:06:12;;;;;;;4.20;1.50;;;13.90;52.90;;;;;;5011322;28;20434;-70
2023/04/17 09:08:39;;;;;;;5.43;1.93;;;14.10;52.10;;;;;;5009450;28;20831;-70
2023/04/17 09:11:15;;;;;;;5.03;1.97;;;14.10;50.90;;;;;;5016093;28;20447;-70
2023/04/17 09:13:41;;;;;;;4.03;1.40;;;14.20;53.20;;;;;;5006628;28;20441;-71
2023/04/17 09:16:08;;;;;;;4.20;1.50;;;14.40;51.90;;;;;;5008358;28;20490;-72
2023/04/17 09:18:36;;;;;;;3.80;1.33;;;14.40;50.90;;;;;;5009701;28;20194;-71
2023/04/17 09:21:03;;;;;;;4.67;1.60;;;14.30;52.20;;;;;;5006710;28;20549;-69
2023/04/17 09:23:44;;;;;;;3.80;1.30;;;14.30;51.00;;;;;;5009103;28;20472;-69
2023/04/17 09:26:12;;;;;;;4.30;1.90;;;14.40;51.90;;;;;;5006641;28;21003;-70
2023/04/17 09:28:38;;;;;;;3.90;1.50;;;14.60;52.00;;;;;;5010822;28;20438;-71
2023/04/17 09:31:22;;;;;;;5.50;1.80;;;14.80;50.70;;;;;;5010080;28;20536;-69
2023/04/17 09:34:02;;;;;;;3.60;1.40;;;14.80;50.20;;;;;;5006827;28;20457;-70
2023/04/17 09:36:31;;;;;;;3.67;1.47;;;14.50;50.70;;;;;;5012289;28;20409;-68
2023/04/17 09:38:59;;;;;;;3.90;1.50;;;14.80;50.20;;;;;;5012613;28;20427;-68
2023/04/17 09:41:30;;;;;;;3.40;1.30;;;15.00;50.10;;;;;;5012333;28;20994;-67
2023/04/17 09:44:04;;;;;;;3.77;1.50;;;15.00;48.70;;;;;;5008174;28;20431;-68
2023/04/17 09:46:46;;;;;;;3.60;1.60;;;15.10;49.00;;;;;;5012157;28;20408;-71
2023/04/17 09:49:36;;;;;;;3.40;1.60;;;15.00;49.30;;;;;;5011046;28;20437;-71
2023/04/17 09:52:02;;;;;;;3.90;2.03;;;15.20;48.80;;;;;;5004424;28;20475;-71
2023/04/17 09:54:36;;;;;;;3.00;1.30;;;14.70;49.20;;;;;;5011547;28;20871;-70
2023/04/17 09:57:03;;;;;;;4.43;2.27;;;15.10;49.00;;;;;;5007164;28;20403;-69
2023/04/17 09:59:30;;;;;;;4.33;1.90;;;15.10;48.40;;;;;;5011977;28;20427;-69
2023/04/17 10:01:56;;;;;;;4.50;1.77;;;15.20;48.70;;;;;;5010456;28;20558;-68
2023/04/17 10:04:22;;;;;;;2.90;1.50;;;15.20;48.70;;;;;;5004972;28;20523;-68
2023/04/17 10:06:48;;;;;;;4.70;1.50;;;15.20;48.90;;;;;;5009330;28;20539;-69
2023/04/17 10:09:14;;;;;;;2.83;1.40;;;15.30;49.40;;;;;;5011971;28;20617;-68
2023/04/17 10:11:42;;;;;;;2.80;1.50;;;15.30;46.80;;;;;;5010682;28;20487;-69
2023/04/17 10:14:31;;;;;;;2.70;1.43;;;15.80;48.00;;;;;;5010129;28;20209;-70
2023/04/17 10:16:57;;;;;;;2.50;1.20;;;16.30;46.00;;;;;;5006742;28;20471;-68
2023/04/17 10:19:23;;;;;;;2.20;1.20;;;16.90;45.20;;;;;;5009230;28;20476;-68
2023/04/17 10:22:14;;;;;;;2.17;1.27;;;16.90;42.10;;;;;;5008939;28;20261;-69
2023/04/17 10:24:53;;;;;;;2.20;1.50;;;16.90;42.60;;;;;;5009027;28;20439;-69
2023/04/17 10:27:27;;;;;;;4.47;1.83;;;16.70;42.50;;;;;;5007885;28;20863;-68
2023/04/17 10:29:57;;;;;;;2.83;1.60;;;16.90;41.60;;;;;;5010228;28;20456;-68
2023/04/17 10:32:27;;;;;;;2.33;1.77;;;17.20;41.00;;;;;;5005723;28;21050;-68
2023/04/17 10:34:55;;;;;;;2.53;1.67;;;17.20;40.80;;;;;;5005850;28;20924;-68
2023/04/17 10:37:47;;;;;;;1.80;1.30;;;17.30;40.30;;;;;;5006688;28;20434;-68
2023/04/17 10:40:23;;;;;;;2.33;1.80;;;17.10;40.10;;;;;;5002998;28;20456;-68
2023/04/17 10:43:16;;;;;;;2.40;1.53;;;17.10;40.90;;;;;;5004841;28;20483;-68
2023/04/17 10:45:58;;;;;;;2.10;1.57;;;17.20;42.10;;;;;;5013822;28;20425;-69
2023/04/17 10:48:36;;;;;;;1.80;1.20;;;17.30;41.30;;;;;;5015565;28;20433;-70
2023/04/17 10:51:23;;;;;;;2.73;1.77;;;17.50;40.60;;;;;;5008760;28;20471;-68
2023/04/17 10:53:51;;;;;;;2.00;1.60;;;17.70;39.00;;;;;;5020125;28;20502;-69
2023/04/17 10:56:29;;;;;;;2.73;1.83;;;18.20;40.00;;;;;;5015366;28;20472;-72
2023/04/17 10:59:01;;;;;;;1.97;1.37;;;18.60;38.50;;;;;;5013056;28;20442;-71
2023/04/17 11:01:52;;;;;;;2.10;1.40;;;18.60;37.60;;;;;;5012861;28;21082;-71
2023/04/17 11:04:22;;;;;;;2.20;1.60;;;18.30;39.80;;;;;;5008607;28;20469;-68
2023/04/17 11:06:48;;;;;;;3.43;1.63;;;17.90;38.50;;;;;;5008281;28;20398;-70
2023/04/17 11:09:14;;;;;;;1.70;1.10;;;17.50;39.30;;;;;;5013809;28;20437;-68
2023/04/17 11:11:42;;;;;;;1.80;1.30;;;17.30;39.10;;;;;;5015217;28;20434;-68
2023/04/17 11:14:09;;;;;;;1.90;1.30;;;17.40;39.20;;;;;;5013901;28;20502;-69
2023/04/17 11:16:38;;;;;;;2.23;1.60;;;17.40;40.60;;;;;;5014315;28;20449;-68
2023/04/17 11:19:05;;;;;;;1.80;1.23;;;17.40;40.90;;;;;;5013961;28;20434;-68
2023/04/17 11:21:31;;;;;;;2.43;1.47;;;17.80;40.40;;;;;;5015055;28;20501;-68
2023/04/17 11:24:01;;;;;;;1.90;1.30;;;17.90;38.80;;;;;;5015117;28;20518;-68
2023/04/17 11:26:26;;;;;;;2.20;1.40;;;18.40;37.00;;;;;;5015111;28;20466;-68
2023/04/17 11:28:52;;;;;;;2.20;1.60;;;18.80;37.40;;;;;;5013331;28;20965;-68
2023/04/17 11:31:18;;;;;;;2.80;1.80;;;18.80;35.60;;;;;;5008752;28;21608;-68
2023/04/17 11:33:46;;;;;;;1.87;1.30;;;18.90;36.50;;;;;;5011461;28;20579;-68
2023/04/17 11:36:12;;;;;;;2.00;1.30;;;18.40;35.90;;;;;;5006273;28;20428;-69
2023/04/17 11:38:46;;;;;;;1.90;1.30;;;18.20;36.20;;;;;;5011775;28;20516;-68
2023/04/17 11:41:12;;;;;;;2.00;1.40;;;17.10;38.40;;;;;;5006620;28;20210;-68
2023/04/17 11:43:38;;;;;;;1.90;1.30;;;15.80;41.80;;;;;;5011941;28;20518;-68
2023/04/17 11:46:05;;;;;;;3.37;2.17;;;15.30;46.60;;;;;;5013112;28;20555;-68
2023/04/17 11:48:33;;;;;;;2.03;1.43;;;15.50;44.60;;;;;;5012787;28;20520;-68
2023/04/17 11:51:01;;;;;;;2.00;1.40;;;16.10;42.50;;;;;;5011242;28;20454;-68
2023/04/17 11:53:27;;;;;;;2.17;1.40;;;15.80;44.70;;;;;;5012240;28;20460;-68
2023/04/17 11:56:15;;;;;;;1.80;1.20;;;16.20;43.20;;;;;;5012219;28;20970;-69
2023/04/17 11:58:52;;;;;;;1.90;1.20;;;16.20;41.30;;;;;;5008510;28;20455;-68
2023/04/17 12:01:23;;;;;;;2.50;1.60;;;15.70;42.00;;;;;;5043430;22;20497;-69
2023/04/17 12:03:49;;;;;;;2.00;1.40;;;15.30;45.50;;;;;;5026178;28;20478;-67
2023/04/17 12:06:15;;;;;;;2.67;1.40;;;15.70;46.10;;;;;;5030533;28;20411;-67
2023/04/17 12:08:43;;;;;;;1.93;1.37;;;16.20;45.40;;;;;;5029483;28;20184;-67
2023/04/17 12:11:31;;;;;;;6.83;2.47;;;16.50;44.10;;;;;;5024583;28;20472;-66
2023/04/17 12:13:57;;;;;;;2.00;1.40;;;16.70;44.60;;;;;;5014793;28;20434;-67
2023/04/17 12:16:24;;;;;;;2.20;1.53;;;17.00;43.60;;;;;;5012825;28;20841;-66
2023/04/17 12:18:50;;;;;;;1.83;1.30;;;16.90;41.40;;;;;;5011119;28;20920;-67
2023/04/17 12:21:16;;;;;;;1.80;1.20;;;15.40;45.90;;;;;;5010741;28;20465;-66
2023/04/17 12:23:42;;;;;;;2.00;1.40;;;15.60;46.70;;;;;;5019467;28;20181;-66
2023/04/17 12:26:09;;;;;;;1.87;1.37;;;18.30;44.20;;;;;;5020217;28;20430;-67
2023/04/17 12:28:35;;;;;;;1.97;1.30;;;19.80;38.00;;;;;;5017604;28;20657;-67
2023/04/17 12:31:01;;;;;;;2.10;1.50;;;21.80;32.40;;;;;;5006017;28;20555;-71
2023/04/17 12:33:26;;;;;;;3.23;2.10;;;21.80;29.40;;;;;;5020202;28;20512;-68
2023/04/17 12:35:52;;;;;;;3.00;1.90;;;22.00;28.20;;;;;;5013922;28;20443;-68
2023/04/17 12:38:17;;;;;;;3.20;1.70;;;21.40;29.30;;;;;;5006823;28;20565;-70
2023/04/17 12:40:44;;;;;;;6.30;1.77;;;22.10;29.50;;;;;;5007291;28;20622;-71
2023/04/17 12:43:13;;;;;;;3.70;2.07;;;21.60;29.00;;;;;;5021576;28;20548;-71
2023/04/17 12:45:40;;;;;;;2.60;1.37;;;20.30;30.80;;;;;;5023837;28;20426;-70
2023/04/17 12:48:06;;;;;;;4.50;2.13;;;20.00;32.10;;;;;;5024939;28;20424;-70
2023/04/17 12:50:32;;;;;;;2.63;1.53;;;19.80;31.80;;;;;;5032140;28;20493;-70